Skip Navigation Links Skip Navigation Links

Current Weather

Biggin Hill, United Kingdom

For information only: do not use for flight planning or navigation.
Latest weather
Observation time Tuesday, November 24, 2020 10:20 PM GMT
Local time Wednesday, November 25, 2020 1:38 AM GMT
Flight conditions Visual Meteorological Conditions
Winds
Wind direction South-Southeast (160°)
Wind speed 10 mph
Visibility 6.2 mi.
Sky condition
Ceiling unlimited
Sky clear
Temperature 46°F
Dewpoint 45°F
Altimeter 29.88 in.Hg
Derived measurements
Relative humidity 93%
Wind chill 41°F
Density altitude -654 ft.
Remarks
Ceiling and visibility OK.
METAR EGKB 242220Z 16009KT CAVOK 08/07 Q1012

Settings

Location code

InnerDrive.Weather 4.0.6770.0 Release CLR 4.0.30319.42000
Copyright ©2018 Inner Drive Technology. All rights reserved. Portions Copyright ©1986-2018 David Braverman.

Find weather

Site navigation


Skip Navigation Links

Place info

Page info

PayPal - The safer, easier way to pay online!

Return home.

Copyright ©2020 Inner Drive Technology. Purveyors of fine, hand-crafted computer software. Page printed 2020-11-25T01:38:58 UTC.